Airport Name : Campbell River

Other Name : Campbell River

ICAO : CYBL

IATA : YBL

FAA :

Latitude : 49.950832

Longitude : -125.270833

Country : Canada

Local Date and Time : 7/16/2018 12:55:00 PM

 

TAF (Terminal Aerodrome Forecast)

TAF CYBL 161838Z 1619/1704 08006KT P6SM SKC BECMG 1700/1702 33007KT RMK NXT FCST BY 170100Z

 

METAR (METeorological Aerodrome Report)

CYBL 161900Z 07007KT 30SM SKC 25/12 A3006 RMK SLP178 DENSITY ALT 1400FT

CYBL 161800Z 08005KT 330V120 30SM SKC 23/12 A3006 RMK SLP180 DENSITY ALT 1300FT

CYBL 161700Z 31010KT 30SM SKC 22/10 A3007 RMK SLP183 DENSITY ALT 1100FT

CYBL 161600Z 30009KT 270V340 30SM SKC 20/09 A3007 RMK SLP182 DENSITY ALT 900FT